Time;durP1;ratioP1;P1;durP2;ratioP2;P2;SDS_P1;SDS_P2;PMS_P1;PMS_P2;Temp;Humidity;BMP_temperature;BMP_pressure;BME280_temperature;BME280_humidity;BME280_pressure;Samples;Min_cycle;Max_cycle;Signal;HPM_P1;HPM_P2
2023/03/22 00:02:21;;;;;;;49.30;20.38;;;;;;;;;;4991076;28;20073;-60
2023/03/22 00:04:49;;;;;;;51.88;21.00;;;;;;;;;;4982477;28;20796;-60
2023/03/22 00:07:23;;;;;;;70.25;22.15;;;;;;;;;;4987140;28;20499;-60
2023/03/22 00:09:50;;;;;;;65.07;22.23;;;;;;;;;;4990673;28;20055;-60
2023/03/22 00:12:31;;;;;;;63.70;21.73;;;;;;;;;;4989738;28;20050;-61
2023/03/22 00:15:06;;;;;;;68.60;25.38;;;;;;;;;;4989493;28;20458;-60
2023/03/22 00:17:40;;;;;;;60.63;23.58;;;;;;;;;;4994602;28;20185;-60
2023/03/22 00:20:14;;;;;;;56.40;24.83;;;;;;;;;;4988169;28;20637;-60
2023/03/22 00:22:48;;;;;;;72.03;22.98;;;;;;;;;;4984822;28;20054;-59
2023/03/22 00:25:22;;;;;;;70.20;24.00;;;;;;;;;;4992649;28;20162;-60
2023/03/22 00:27:50;;;;;;;51.55;22.83;;;;;;;;;;4987194;28;20051;-60
2023/03/22 00:30:17;;;;;;;57.67;23.35;;;;;;;;;;4989962;28;20042;-59
2023/03/22 00:32:50;;;;;;;65.03;23.70;;;;;;;;;;4988053;28;20498;-59
2023/03/22 00:35:17;;;;;;;83.97;26.45;;;;;;;;;;4972548;28;20137;-60
2023/03/22 00:37:51;;;;;;;72.25;25.42;;;;;;;;;;4989857;28;20046;-60
2023/03/22 00:40:19;;;;;;;76.57;27.27;;;;;;;;;;4989713;28;20055;-60
2023/03/22 00:42:46;;;;;;;64.78;24.20;;;;;;;;;;4989931;28;20714;-59
2023/03/22 00:45:19;;;;;;;67.80;26.08;;;;;;;;;;4993829;28;20046;-59
2023/03/22 00:47:46;;;;;;;82.50;29.23;;;;;;;;;;4992776;28;20131;-60
2023/03/22 00:50:20;;;;;;;75.28;28.05;;;;;;;;;;4991065;28;20329;-59
2023/03/22 00:52:47;;;;;;;85.95;30.55;;;;;;;;;;4979500;28;20138;-60
2023/03/22 00:55:15;;;;;;;83.40;30.58;;;;;;;;;;4985283;28;20062;-59
2023/03/22 00:57:48;;;;;;;56.03;27.08;;;;;;;;;;4985103;28;20042;-59
2023/03/22 01:00:15;;;;;;;87.90;30.70;;;;;;;;;;4968862;28;20061;-59
2023/03/22 01:02:43;;;;;;;97.75;35.55;;;;;;;;;;4981489;28;20050;-60
2023/03/22 01:05:16;;;;;;;99.95;36.60;;;;;;;;;;4974575;28;20058;-59
2023/03/22 01:07:43;;;;;;;117.50;36.58;;;;;;;;;;4991631;28;20090;-59
2023/03/22 01:10:18;;;;;;;114.13;36.45;;;;;;;;;;4989149;28;20058;-59
2023/03/22 01:12:52;;;;;;;118.00;37.65;;;;;;;;;;4984668;28;20068;-59
2023/03/22 01:15:26;;;;;;;120.88;37.05;;;;;;;;;;4985487;28;20137;-57
2023/03/22 01:17:54;;;;;;;135.38;41.60;;;;;;;;;;4985959;28;20082;-60
2023/03/22 01:20:21;;;;;;;114.40;37.95;;;;;;;;;;4983691;28;20055;-59
2023/03/22 01:22:55;;;;;;;129.25;40.63;;;;;;;;;;4983908;28;20056;-60
2023/03/22 01:25:22;;;;;;;164.90;42.58;;;;;;;;;;4990021;28;20137;-58
2023/03/22 01:27:56;;;;;;;114.55;40.05;;;;;;;;;;4990292;28;20061;-60
2023/03/22 01:30:23;;;;;;;181.25;46.55;;;;;;;;;;4992659;28;20141;-59
2023/03/22 01:32:51;;;;;;;129.73;44.63;;;;;;;;;;4991105;28;20069;-58
2023/03/22 01:35:24;;;;;;;147.80;44.88;;;;;;;;;;4989457;28;20050;-58
2023/03/22 01:37:51;;;;;;;145.20;42.42;;;;;;;;;;4980826;28;20084;-59
2023/03/22 01:40:26;;;;;;;169.35;47.05;;;;;;;;;;4982826;28;20052;-59
2023/03/22 01:42:54;;;;;;;131.48;43.67;;;;;;;;;;4985981;28;20077;-59
2023/03/22 01:45:35;;;;;;;166.60;46.78;;;;;;;;;;4980825;28;20137;-59
2023/03/22 01:48:12;;;;;;;128.90;39.30;;;;;;;;;;4986909;28;20141;-59
2023/03/22 01:50:54;;;;;;;152.88;45.17;;;;;;;;;;4979879;28;20061;-59
2023/03/22 01:53:24;;;;;;;184.88;47.13;;;;;;;;;;4987528;28;20109;-58
2023/03/22 01:55:57;;;;;;;147.77;41.00;;;;;;;;;;4987664;28;20509;-60
2023/03/22 01:58:25;;;;;;;117.93;37.00;;;;;;;;;;4985674;28;20589;-58
2023/03/22 02:00:59;;;;;;;115.68;39.63;;;;;;;;;;4985105;28;20133;-59
2023/03/22 02:03:26;;;;;;;;;;;;;;;;;;4990095;28;20054;-58
2023/03/22 02:05:54;;;;;;;131.32;35.67;;;;;;;;;;4989017;28;20612;-59
2023/03/22 02:08:27;;;;;;;99.30;31.77;;;;;;;;;;4977042;28;20549;-60
2023/03/22 02:10:54;;;;;;;97.70;32.83;;;;;;;;;;4986047;28;20057;-59
2023/03/22 02:13:37;;;;;;;85.60;29.70;;;;;;;;;;4982716;28;20141;-59
2023/03/22 02:16:24;;;;;;;68.20;24.63;;;;;;;;;;4983974;28;20500;-59
2023/03/22 02:19:07;;;;;;;51.55;20.42;;;;;;;;;;4989575;28;20141;-58
2023/03/22 02:21:47;;;;;;;54.50;21.05;;;;;;;;;;4983741;28;20043;-59
2023/03/22 02:24:23;;;;;;;53.13;20.60;;;;;;;;;;4967360;28;20189;-60
2023/03/22 02:27:01;;;;;;;49.90;19.45;;;;;;;;;;4983120;28;20046;-60
2023/03/22 02:29:38;;;;;;;42.97;17.65;;;;;;;;;;4979022;28;20064;-59
2023/03/22 02:32:14;;;;;;;32.42;16.73;;;;;;;;;;4976753;28;20635;-60
2023/03/22 02:34:59;;;;;;;42.83;16.50;;;;;;;;;;4984659;28;20054;-59
2023/03/22 02:37:36;;;;;;;36.42;16.00;;;;;;;;;;4982002;28;20133;-59
2023/03/22 02:40:26;;;;;;;42.22;16.70;;;;;;;;;;4986490;28;20060;-58
2023/03/22 02:43:16;;;;;;;25.30;12.20;;;;;;;;;;4987533;28;20136;-60
2023/03/22 02:45:46;;;;;;;28.08;14.10;;;;;;;;;;4983776;28;20132;-58
2023/03/22 02:48:26;;;;;;;24.45;11.88;;;;;;;;;;4986356;28;20441;-60
2023/03/22 02:50:55;;;;;;;33.08;12.88;;;;;;;;;;4990029;28;20076;-60
2023/03/22 02:53:34;;;;;;;20.02;10.52;;;;;;;;;;4988536;28;20050;-60
2023/03/22 02:56:13;;;;;;;22.40;11.80;;;;;;;;;;4985396;28;20566;-59
2023/03/22 02:58:49;;;;;;;29.60;13.77;;;;;;;;;;4986289;28;20050;-59
2023/03/22 03:01:18;;;;;;;24.60;11.07;;;;;;;;;;4987450;28;20072;-58
2023/03/22 03:03:47;;;;;;;30.23;13.57;;;;;;;;;;4980755;28;20128;-59
2023/03/22 03:06:24;;;;;;;36.88;12.82;;;;;;;;;;4991639;28;20529;-60
2023/03/22 03:08:52;;;;;;;39.38;12.82;;;;;;;;;;4973245;28;20077;-59
2023/03/22 03:11:26;;;;;;;32.28;12.30;;;;;;;;;;4988297;28;20514;-59
2023/03/22 03:14:00;;;;;;;28.60;12.00;;;;;;;;;;4985730;28;20050;-59
2023/03/22 03:16:35;;;;;;;26.63;12.00;;;;;;;;;;4987917;28;20064;-59
2023/03/22 03:19:18;;;;;;;27.63;12.40;;;;;;;;;;4987296;28;20050;-59
2023/03/22 03:22:03;;;;;;;29.80;13.65;;;;;;;;;;4986267;28;20050;-58
2023/03/22 03:24:34;;;;;;;27.05;12.18;;;;;;;;;;4985548;28;20129;-60
2023/03/22 03:27:08;;;;;;;;;;;;;;;;;;4984877;28;20086;-59
2023/03/22 03:29:40;;;;;;;56.65;15.95;;;;;;;;;;4982967;28;19936;-61
2023/03/22 03:32:19;;;;;;;46.97;16.55;;;;;;;;;;4988313;28;20145;-60
2023/03/22 03:34:50;;;;;;;71.72;19.17;;;;;;;;;;4980167;28;20046;-59
2023/03/22 03:37:45;;;;;;;59.83;19.48;;;;;;;;;;4986692;28;20050;-60
2023/03/22 03:40:15;;;;;;;63.42;20.15;;;;;;;;;;4992091;28;20081;-60
2023/03/22 03:42:51;;;;;;;95.25;23.42;;;;;;;;;;4987465;28;20062;-60
2023/03/22 03:45:20;;;;;;;109.90;26.17;;;;;;;;;;4994691;28;20100;-60
2023/03/22 03:47:57;;;;;;;217.02;33.97;;;;;;;;;;4980629;28;20545;-60
2023/03/22 03:50:25;;;;;;;118.35;28.02;;;;;;;;;;4990917;28;20058;-60
2023/03/22 03:52:53;;;;;;;181.80;31.08;;;;;;;;;;4985750;28;20483;-60
2023/03/22 03:55:28;;;;;;;184.52;31.38;;;;;;;;;;4984365;28;20057;-59
2023/03/22 03:57:55;;;;;;;176.05;32.55;;;;;;;;;;4991676;28;20053;-60
2023/03/22 04:00:29;;;;;;;321.02;40.13;;;;;;;;;;4991274;28;20053;-60
2023/03/22 04:02:57;;;;;;;239.50;39.15;;;;;;;;;;4991262;28;20052;-60
2023/03/22 04:05:24;;;;;;;317.33;41.60;;;;;;;;;;4989611;28;20097;-59
2023/03/22 04:07:57;;;;;;;280.45;38.17;;;;;;;;;;4990146;28;20901;-60
2023/03/22 04:10:25;;;;;;;160.82;33.33;;;;;;;;;;4995736;28;20494;-60
2023/03/22 04:13:05;;;;;;;400.45;45.88;;;;;;;;;;4979316;28;20066;-60
2023/03/22 04:15:32;;;;;;;292.88;40.05;;;;;;;;;;4978452;28;20054;-60
2023/03/22 04:18:08;;;;;;;422.85;48.75;;;;;;;;;;4991639;28;20050;-60
2023/03/22 04:20:37;;;;;;;235.18;38.05;;;;;;;;;;4989288;28;20093;-60
2023/03/22 04:23:05;;;;;;;278.63;39.17;;;;;;;;;;4987735;28;20058;-60
2023/03/22 04:25:38;;;;;;;431.85;47.38;;;;;;;;;;4991797;28;20120;-60
2023/03/22 04:28:06;;;;;;;199.25;38.05;;;;;;;;;;4989821;28;20502;-60
2023/03/22 04:30:39;;;;;;;207.48;36.85;;;;;;;;;;4988133;28;20095;-60
2023/03/22 04:33:07;;;;;;;;;;;;;;;;;;4993333;28;20421;-59
2023/03/22 04:35:34;;;;;;;509.05;49.58;;;;;;;;;;4974631;28;20012;-60
2023/03/22 04:38:08;;;;;;;203.25;36.65;;;;;;;;;;4971823;28;20109;-59
2023/03/22 04:40:37;;;;;;;309.25;42.42;;;;;;;;;;4986399;28;20062;-60
2023/03/22 04:43:12;;;;;;;335.15;45.40;;;;;;;;;;4991161;28;20423;-59
2023/03/22 04:45:40;;;;;;;441.05;49.25;;;;;;;;;;4980984;28;20050;-60
2023/03/22 04:48:09;;;;;;;406.67;49.00;;;;;;;;;;4989598;28;20858;-59
2023/03/22 04:50:43;;;;;;;219.63;39.92;;;;;;;;;;4989088;28;20092;-59
2023/03/22 04:53:11;;;;;;;279.00;43.58;;;;;;;;;;4987064;28;20129;-59
2023/03/22 04:55:44;;;;;;;562.78;57.25;;;;;;;;;;4986587;28;20062;-59
2023/03/22 04:58:11;;;;;;;288.10;45.15;;;;;;;;;;4988440;28;20056;-60
2023/03/22 05:00:40;;;;;;;345.45;47.15;;;;;;;;;;4986973;28;20062;-61
2023/03/22 05:03:18;;;;;;;229.63;41.90;;;;;;;;;;4992606;28;20047;-60
2023/03/22 05:05:52;;;;;;;215.18;39.50;;;;;;;;;;4976937;28;20073;-60
2023/03/22 05:08:27;;;;;;;178.07;38.17;;;;;;;;;;4988541;28;20525;-60
2023/03/22 05:10:55;;;;;;;330.40;47.17;;;;;;;;;;4989418;28;20419;-61
2023/03/22 05:13:24;;;;;;;294.23;45.03;;;;;;;;;;4988134;28;20589;-57
2023/03/22 05:16:05;;;;;;;196.60;37.05;;;;;;;;;;4983343;28;20050;-59
2023/03/22 05:18:33;;;;;;;387.95;49.75;;;;;;;;;;4990716;28;20144;-59
2023/03/22 05:21:10;;;;;;;187.60;39.05;;;;;;;;;;4991525;28;20062;-59
2023/03/22 05:23:37;;;;;;;240.68;42.17;;;;;;;;;;4987945;28;20075;-61
2023/03/22 05:26:07;;;;;;;510.50;52.83;;;;;;;;;;4981720;28;20051;-59
2023/03/22 05:28:47;;;;;;;360.02;49.38;;;;;;;;;;4975637;28;20058;-60
2023/03/22 05:31:15;;;;;;;587.40;57.35;;;;;;;;;;4988305;28;20136;-61
2023/03/22 05:33:50;;;;;;;533.75;57.15;;;;;;;;;;4986586;28;20406;-61
2023/03/22 05:36:18;;;;;;;423.50;52.85;;;;;;;;;;4980620;28;20060;-63
2023/03/22 05:38:45;;;;;;;264.42;45.55;;;;;;;;;;4988268;28;20061;-62
2023/03/22 05:41:19;;;;;;;434.58;53.65;;;;;;;;;;4987477;28;20055;-52
2023/03/22 05:43:47;;;;;;;448.55;53.55;;;;;;;;;;4987066;28;20046;-60
2023/03/22 05:46:21;;;;;;;287.50;48.30;;;;;;;;;;4987773;28;20211;-60
2023/03/22 05:48:48;;;;;;;409.67;52.17;;;;;;;;;;4981602;28;20051;-59
2023/03/22 05:51:16;;;;;;;832.42;75.18;;;;;;;;;;4979197;28;20054;-59
2023/03/22 05:53:52;;;;;;;585.58;61.20;;;;;;;;;;4987876;28;20063;-59
2023/03/22 05:56:23;;;;;;;437.08;56.25;;;;;;;;;;4978578;28;20626;-60
2023/03/22 05:58:57;;;;;;;398.98;55.25;;;;;;;;;;4977956;28;20482;-60
2023/03/22 06:01:24;;;;;;;557.00;63.08;;;;;;;;;;4984032;28;20601;-59
2023/03/22 06:03:51;;;;;;;961.65;77.38;;;;;;;;;;4984757;28;20069;-60
2023/03/22 06:06:26;;;;;;;817.72;74.82;;;;;;;;;;4989975;28;20109;-60
2023/03/22 06:08:54;;;;;;;686.60;68.63;;;;;;;;;;4990172;28;20485;-54
2023/03/22 06:11:42;;;;;;;306.67;48.40;;;;;;;;;;4986087;28;20415;-60
2023/03/22 06:14:16;;;;;;;470.88;55.33;;;;;;;;;;4969053;28;20050;-60
2023/03/22 06:16:51;;;;;;;309.30;48.80;;;;;;;;;;4963630;28;20089;-60
2023/03/22 06:19:19;;;;;;;303.63;50.33;;;;;;;;;;4968365;28;20073;-60
2023/03/22 06:21:53;;;;;;;356.73;52.92;;;;;;;;;;4966532;28;20057;-60
2023/03/22 06:24:21;;;;;;;187.73;41.10;;;;;;;;;;4971593;28;20056;-61
2023/03/22 06:26:48;;;;;;;222.68;41.80;;;;;;;;;;4969176;28;20061;-62
2023/03/22 06:29:22;;;;;;;278.60;48.17;;;;;;;;;;4966858;28;20051;-61
2023/03/22 06:31:49;;;;;;;244.23;43.65;;;;;;;;;;4969565;28;20059;-62
2023/03/22 06:34:23;;;;;;;136.35;33.88;;;;;;;;;;4967124;28;20051;-62
2023/03/22 06:36:52;;;;;;;159.88;33.28;;;;;;;;;;4970799;28;20069;-52
2023/03/22 06:39:22;;;;;;;182.88;35.72;;;;;;;;;;4971906;28;20053;-62
2023/03/22 06:41:56;;;;;;;252.05;40.28;;;;;;;;;;4966704;28;20458;-59
2023/03/22 06:44:23;;;;;;;187.40;36.55;;;;;;;;;;4971823;28;20050;-60
2023/03/22 06:46:56;;;;;;;268.30;42.25;;;;;;;;;;4967455;28;20046;-59
2023/03/22 06:49:25;;;;;;;313.15;42.33;;;;;;;;;;4970896;28;20055;-56
2023/03/22 06:51:52;;;;;;;214.48;39.60;;;;;;;;;;4971414;28;20051;-57
2023/03/22 06:54:26;;;;;;;204.43;38.05;;;;;;;;;;4973545;28;20055;-59
2023/03/22 06:56:54;;;;;;;204.57;37.67;;;;;;;;;;4968371;28;20061;-59
2023/03/22 06:59:27;;;;;;;173.63;35.00;;;;;;;;;;4969026;28;20064;-59
2023/03/22 07:01:55;;;;;;;183.13;38.30;;;;;;;;;;4968563;28;20057;-59
2023/03/22 07:04:22;;;;;;;277.38;40.72;;;;;;;;;;4972764;28;20064;-59
2023/03/22 07:06:56;;;;;;;147.65;33.47;;;;;;;;;;4972214;28;20360;-57
2023/03/22 07:09:25;;;;;;;182.77;36.85;;;;;;;;;;4965871;28;20154;-62
2023/03/22 07:11:59;;;;;;;268.95;40.15;;;;;;;;;;4963632;28;20085;-62
2023/03/22 07:14:39;;;;;;;260.33;36.67;;;;;;;;;;4983961;28;20422;-62
2023/03/22 07:17:13;;;;;;;246.90;37.17;;;;;;;;;;4979552;28;20057;-62
2023/03/22 07:19:41;;;;;;;344.65;41.40;;;;;;;;;;4984679;28;20054;-62
2023/03/22 07:22:09;;;;;;;357.30;42.35;;;;;;;;;;4988389;28;20490;-62
2023/03/22 07:24:42;;;;;;;464.02;45.95;;;;;;;;;;4991772;28;20062;-65
2023/03/22 07:27:23;;;;;;;225.05;35.30;;;;;;;;;;4983027;28;20045;-65
2023/03/22 07:29:56;;;;;;;243.15;36.55;;;;;;;;;;4980805;28;20077;-65
2023/03/22 07:32:24;;;;;;;145.15;29.85;;;;;;;;;;4990807;28;20048;-66
2023/03/22 07:34:51;;;;;;;129.45;29.42;;;;;;;;;;4988772;28;20054;-50
2023/03/22 07:37:24;;;;;;;141.40;31.48;;;;;;;;;;4979241;28;20133;-58
2023/03/22 07:39:52;;;;;;;173.63;32.00;;;;;;;;;;4975888;28;20113;-59
2023/03/22 07:42:25;;;;;;;219.55;35.95;;;;;;;;;;4983761;28;20141;-59
2023/03/22 07:44:53;;;;;;;123.68;27.00;;;;;;;;;;4990157;28;20054;-60
2023/03/22 07:47:20;;;;;;;207.75;34.15;;;;;;;;;;4987612;28;20057;-60
2023/03/22 07:50:08;;;;;;;100.18;23.88;;;;;;;;;;4984479;28;20055;-58
2023/03/22 07:52:35;;;;;;;133.13;30.33;;;;;;;;;;4983357;28;20145;-60
2023/03/22 07:55:10;;;;;;;108.60;29.88;;;;;;;;;;4989820;28;20136;-59
2023/03/22 07:57:38;;;;;;;151.45;32.13;;;;;;;;;;4985608;28;20141;-60
2023/03/22 08:00:12;;;;;;;144.13;32.13;;;;;;;;;;4986395;28;20512;-56
2023/03/22 08:02:39;;;;;;;137.00;31.65;;;;;;;;;;4984756;28;20046;-60
2023/03/22 08:05:06;;;;;;;160.20;33.38;;;;;;;;;;4986758;28;20410;-59
2023/03/22 08:07:41;;;;;;;93.90;27.95;;;;;;;;;;4986329;28;20497;-60
2023/03/22 08:10:08;;;;;;;;;;;;;;;;;;4974744;28;20569;-61
2023/03/22 08:12:55;;;;;;;115.25;29.80;;;;;;;;;;4988676;28;19979;-60
2023/03/22 08:15:30;;;;;;;123.75;29.58;;;;;;;;;;4990007;28;20060;-60
2023/03/22 08:18:04;;;;;;;132.65;32.30;;;;;;;;;;4984798;28;20091;-60
2023/03/22 08:20:31;;;;;;;148.68;34.03;;;;;;;;;;4986477;28;20499;-62
2023/03/22 08:22:58;;;;;;;117.88;32.08;;;;;;;;;;4986116;28;20137;-62
2023/03/22 08:25:32;;;;;;;105.30;30.80;;;;;;;;;;4988602;28;20563;-62
2023/03/22 08:28:00;;;;;;;181.90;36.05;;;;;;;;;;4991218;28;20145;-62
2023/03/22 08:30:34;;;;;;;151.30;34.88;;;;;;;;;;4988231;28;20078;-66
2023/03/22 08:33:01;;;;;;;172.00;36.70;;;;;;;;;;4971233;28;20082;-60
2023/03/22 08:35:28;;;;;;;203.38;36.63;;;;;;;;;;4989278;28;20054;-61
2023/03/22 08:38:02;;;;;;;158.88;35.78;;;;;;;;;;4989370;28;20129;-60
2023/03/22 08:40:30;;;;;;;208.35;38.33;;;;;;;;;;4988504;28;20064;-60
2023/03/22 08:43:04;;;;;;;206.23;39.17;;;;;;;;;;4989581;28;20462;-61
2023/03/22 08:45:31;;;;;;;193.98;37.25;;;;;;;;;;4989267;28;20049;-61
2023/03/22 08:47:58;;;;;;;142.45;33.58;;;;;;;;;;4991400;28;20064;-60
2023/03/22 08:50:33;;;;;;;196.20;37.90;;;;;;;;;;4987518;28;20577;-61
2023/03/22 08:53:00;;;;;;;182.10;37.25;;;;;;;;;;4988201;28;20058;-61
2023/03/22 08:55:34;;;;;;;171.35;36.08;;;;;;;;;;4991673;28;20116;-61
2023/03/22 08:58:03;;;;;;;208.98;39.72;;;;;;;;;;4992213;28;20054;-61
2023/03/22 09:00:30;;;;;;;152.00;36.15;;;;;;;;;;4992156;28;20057;-62
2023/03/22 09:03:15;;;;;;;189.82;38.50;;;;;;;;;;4986204;28;20054;-51
2023/03/22 09:05:42;;;;;;;159.98;37.22;;;;;;;;;;4986560;28;20066;-52
2023/03/22 09:08:16;;;;;;;140.35;35.55;;;;;;;;;;4990396;28;20926;-49
2023/03/22 09:10:50;;;;;;;174.55;38.97;;;;;;;;;;4987580;28;20058;-56
2023/03/22 09:13:30;;;;;;;121.80;34.15;;;;;;;;;;4987383;28;20046;-55
2023/03/22 09:15:57;;;;;;;148.80;37.88;;;;;;;;;;4992287;28;20052;-54
2023/03/22 09:18:31;;;;;;;125.97;36.15;;;;;;;;;;4988605;28;20050;-63
2023/03/22 09:20:59;;;;;;;152.05;37.97;;;;;;;;;;4987308;28;20057;-63
2023/03/22 09:23:26;;;;;;;109.57;36.65;;;;;;;;;;4989805;28;20054;-63
2023/03/22 09:26:00;;;;;;;112.90;32.95;;;;;;;;;;4986320;28;20054;-63
2023/03/22 09:28:28;;;;;;;118.63;35.38;;;;;;;;;;4982601;28;20483;-60
2023/03/22 09:31:03;;;;;;;127.88;37.20;;;;;;;;;;4988161;28;20511;-60
2023/03/22 09:33:30;;;;;;;132.65;37.38;;;;;;;;;;4983135;28;20058;-60
2023/03/22 09:35:57;;;;;;;135.40;38.50;;;;;;;;;;4985752;28;20058;-61
2023/03/22 09:38:34;;;;;;;139.45;37.92;;;;;;;;;;4985532;28;20050;-60
2023/03/22 09:41:11;;;;;;;110.05;35.65;;;;;;;;;;4990738;28;20145;-60
2023/03/22 09:43:51;;;;;;;101.57;35.72;;;;;;;;;;4985972;28;20058;-60
2023/03/22 09:46:21;;;;;;;133.00;39.92;;;;;;;;;;4992045;28;20078;-60
2023/03/22 09:48:56;;;;;;;112.05;36.42;;;;;;;;;;4986220;28;20153;-60
2023/03/22 09:51:28;;;;;;;114.53;36.05;;;;;;;;;;4986918;28;20483;-60
2023/03/22 09:53:55;;;;;;;97.85;36.08;;;;;;;;;;4987898;28;20050;-58
2023/03/22 09:56:32;;;;;;;104.75;34.85;;;;;;;;;;4988797;28;20054;-49
2023/03/22 09:59:14;;;;;;;108.70;37.83;;;;;;;;;;4987550;28;20129;-59
2023/03/22 10:01:51;;;;;;;106.10;37.30;;;;;;;;;;4988308;28;20050;-52
2023/03/22 10:04:27;;;;;;;107.40;35.22;;;;;;;;;;4989895;28;20391;-50
2023/03/22 10:07:00;;;;;;;101.95;34.13;;;;;;;;;;4985319;28;20405;-50
2023/03/22 10:09:30;;;;;;;102.30;31.52;;;;;;;;;;4989774;28;20486;-55
2023/03/22 10:12:03;;;;;;;100.60;34.35;;;;;;;;;;4987818;28;20046;-51
2023/03/22 10:14:50;;;;;;;82.05;32.97;;;;;;;;;;4703265;28;8268329;-53
2023/03/22 10:17:26;;;;;;;71.13;26.27;;;;;;;;;;4988172;28;20145;-49
2023/03/22 10:20:09;;;;;;;61.05;25.65;;;;;;;;;;4986412;28;20073;-52
2023/03/22 10:22:39;;;;;;;58.33;24.35;;;;;;;;;;4987963;28;20054;-52
2023/03/22 10:25:18;;;;;;;57.80;23.20;;;;;;;;;;4989994;28;20714;-62
2023/03/22 10:27:48;;;;;;;54.65;21.33;;;;;;;;;;4978958;28;20421;-59
2023/03/22 10:30:25;;;;;;;66.00;23.17;;;;;;;;;;4991333;28;20137;-60
2023/03/22 10:32:56;;;;;;;51.70;21.48;;;;;;;;;;4991949;28;20112;-59
2023/03/22 10:35:31;;;;;;;32.67;16.77;;;;;;;;;;4986683;28;20056;-59
2023/03/22 10:38:00;;;;;;;37.03;17.40;;;;;;;;;;4989213;28;20057;-59
2023/03/22 10:40:29;;;;;;;27.73;12.50;;;;;;;;;;4991002;28;20054;-60
2023/03/22 10:43:07;;;;;;;31.83;14.25;;;;;;;;;;4991167;28;20053;-60
2023/03/22 10:45:35;;;;;;;24.60;11.60;;;;;;;;;;4987194;28;20525;-59
2023/03/22 10:48:14;;;;;;;30.80;12.82;;;;;;;;;;4978309;28;20145;-60
2023/03/22 10:50:44;;;;;;;23.92;12.45;;;;;;;;;;4987755;28;20581;-60
2023/03/22 10:53:18;;;;;;;18.23;10.43;;;;;;;;;;4988385;28;20046;-57
2023/03/22 10:55:55;;;;;;;26.20;12.77;;;;;;;;;;4987229;28;20050;-58
2023/03/22 10:58:30;;;;;;;19.60;10.73;;;;;;;;;;4992854;28;20141;-60
2023/03/22 11:01:17;;;;;;;24.92;11.88;;;;;;;;;;4988209;28;20073;-60
2023/03/22 11:03:54;;;;;;;26.92;11.13;;;;;;;;;;4987907;28;20046;-60
2023/03/22 11:06:26;;;;;;;23.98;10.27;;;;;;;;;;4987431;28;20462;-60
2023/03/22 11:09:01;;;;;;;29.00;11.48;;;;;;;;;;4987610;28;20047;-60
2023/03/22 11:11:29;;;;;;;24.60;11.68;;;;;;;;;;4988315;28;20104;-58
2023/03/22 11:14:21;;;;;;;30.05;13.68;;;;;;;;;;4987533;28;20055;-59
2023/03/22 11:16:57;;;;;;;32.45;15.27;;;;;;;;;;4985485;28;20413;-59
2023/03/22 11:19:33;;;;;;;35.53;15.43;;;;;;;;;;4988643;28;20046;-59
2023/03/22 11:22:01;;;;;;;37.20;16.25;;;;;;;;;;4989990;28;20054;-55
2023/03/22 11:24:35;;;;;;;45.55;17.10;;;;;;;;;;4984877;28;20067;-60
2023/03/22 11:27:05;;;;;;;48.65;17.65;;;;;;;;;;4988933;28;20056;-60
2023/03/22 11:29:40;;;;;;;55.65;19.67;;;;;;;;;;4989739;28;20046;-60
2023/03/22 11:32:20;;;;;;;51.70;19.27;;;;;;;;;;4988665;28;20090;-60
2023/03/22 11:35:00;;;;;;;45.55;18.38;;;;;;;;;;4983612;28;20061;-59
2023/03/22 11:37:28;;;;;;;51.38;18.63;;;;;;;;;;4988910;28;20058;-59
2023/03/22 11:40:03;;;;;;;41.35;16.85;;;;;;;;;;4987338;28;20078;-63
2023/03/22 11:42:33;;;;;;;46.28;19.35;;;;;;;;;;4990453;28;20153;-62
2023/03/22 11:45:00;;;;;;;48.67;19.05;;;;;;;;;;4985601;28;20478;-63
2023/03/22 11:47:40;;;;;;;48.80;20.17;;;;;;;;;;4986592;28;20141;-62
2023/03/22 11:50:09;;;;;;;44.67;19.40;;;;;;;;;;4986784;28;20185;-60
2023/03/22 11:52:48;;;;;;;48.53;18.70;;;;;;;;;;4985699;28;20105;-62
2023/03/22 11:55:16;;;;;;;55.20;19.35;;;;;;;;;;4989380;28;20498;-62
2023/03/22 11:57:50;;;;;;;39.10;16.50;;;;;;;;;;4989206;28;20285;-62
2023/03/22 12:00:20;;;;;;;39.08;17.13;;;;;;;;;;4987583;28;20058;-62
2023/03/22 12:03:01;;;;;;;42.92;15.63;;;;;;;;;;4991702;28;20084;-62
2023/03/22 12:05:30;;;;;;;37.72;16.42;;;;;;;;;;4991885;28;20514;-62
2023/03/22 12:08:13;;;;;;;29.55;14.32;;;;;;;;;;4990545;28;20109;-59
2023/03/22 12:10:41;;;;;;;36.75;14.80;;;;;;;;;;4993398;28;20129;-60
2023/03/22 12:13:34;;;;;;;30.83;15.32;;;;;;;;;;4994018;28;20056;-60
2023/03/22 12:16:02;;;;;;;28.00;13.40;;;;;;;;;;4988440;28;20050;-60
2023/03/22 12:18:44;;;;;;;28.25;12.43;;;;;;;;;;4986487;28;20058;-59
2023/03/22 12:21:11;;;;;;;27.65;12.65;;;;;;;;;;4993036;28;20053;-59
2023/03/22 12:23:44;;;;;;;22.67;9.57;;;;;;;;;;4990972;28;20188;-60
2023/03/22 12:26:12;;;;;;;22.95;9.25;;;;;;;;;;4990035;28;20129;-59
2023/03/22 12:29:04;;;;;;;24.10;10.73;;;;;;;;;;4990677;28;20077;-60
2023/03/22 12:31:38;;;;;;;23.40;9.13;;;;;;;;;;4989756;28;20061;-59
2023/03/22 12:34:14;;;;;;;21.92;8.65;;;;;;;;;;4990374;28;20072;-60
2023/03/22 12:36:47;;;;;;;18.30;8.13;;;;;;;;;;4984863;28;20145;-59
2023/03/22 12:39:23;;;;;;;22.85;8.57;;;;;;;;;;4986904;28;20054;-58
2023/03/22 12:41:52;;;;;;;19.13;7.18;;;;;;;;;;4992572;28;20408;-60
2023/03/22 12:44:29;;;;;;;19.20;8.35;;;;;;;;;;4990066;28;20145;-59
2023/03/22 12:46:57;;;;;;;14.38;7.43;;;;;;;;;;4988827;28;20042;-60
2023/03/22 12:49:39;;;;;;;13.93;6.82;;;;;;;;;;4993817;28;20046;-59
2023/03/22 12:52:18;;;;;;;12.50;6.15;;;;;;;;;;4988064;28;20049;-59
2023/03/22 12:54:59;;;;;;;12.45;6.25;;;;;;;;;;4988557;28;20054;-59
2023/03/22 12:57:26;;;;;;;14.30;5.82;;;;;;;;;;4987833;28;20054;-60
2023/03/22 13:00:08;;;;;;;14.07;5.88;;;;;;;;;;4986436;28;20051;-59
2023/03/22 13:02:47;;;;;;;14.80;5.70;;;;;;;;;;4986515;28;21216;-59
2023/03/22 13:05:26;;;;;;;13.85;6.15;;;;;;;;;;4989286;28;20054;-59
2023/03/22 13:07:54;;;;;;;12.25;5.45;;;;;;;;;;4991355;28;20062;-59
2023/03/22 13:10:28;;;;;;;10.82;4.32;;;;;;;;;;4989136;28;20089;-59
2023/03/22 13:13:21;;;;;;;18.15;5.97;;;;;;;;;;4988130;28;20062;-61
2023/03/22 13:16:10;;;;;;;13.75;4.72;;;;;;;;;;4988558;28;20569;-59
2023/03/22 13:18:56;;;;;;;10.48;4.70;;;;;;;;;;4987312;28;20065;-59
2023/03/22 13:21:32;;;;;;;10.15;5.10;;;;;;;;;;4990535;28;20407;-59
2023/03/22 13:24:06;;;;;;;16.98;4.50;;;;;;;;;;4986885;28;20486;-59
2023/03/22 13:26:44;;;;;;;11.20;4.18;;;;;;;;;;4991361;28;20050;-59
2023/03/22 13:29:17;;;;;;;11.32;5.22;;;;;;;;;;4990425;28;20101;-59
2023/03/22 13:31:50;;;;;;;13.13;5.03;;;;;;;;;;4991067;28;20050;-59
2023/03/22 13:34:19;;;;;;;9.55;4.70;;;;;;;;;;4990007;28;20046;-59
2023/03/22 13:36:53;;;;;;;15.18;6.10;;;;;;;;;;4988996;28;20149;-59
2023/03/22 13:39:31;;;;;;;11.68;5.28;;;;;;;;;;4988402;28;20153;-60
2023/03/22 13:42:06;;;;;;;7.85;4.22;;;;;;;;;;4985845;28;20150;-59
2023/03/22 13:44:42;;;;;;;13.07;4.85;;;;;;;;;;4991997;28;20061;-59
2023/03/22 13:47:39;;;;;;;15.52;5.70;;;;;;;;;;4989567;28;20050;-59
2023/03/22 13:50:16;;;;;;;10.98;5.25;;;;;;;;;;4980147;28;20144;-59
2023/03/22 13:52:46;;;;;;;12.30;5.85;;;;;;;;;;4991980;28;20070;-57
2023/03/22 13:55:40;;;;;;;10.18;5.35;;;;;;;;;;4989528;28;20062;-59
2023/03/22 13:58:35;;;;;;;12.43;5.70;;;;;;;;;;4986140;28;20054;-60
2023/03/22 14:01:26;;;;;;;14.18;5.30;;;;;;;;;;4988599;28;20058;-60
2023/03/22 14:04:02;;;;;;;13.60;5.70;;;;;;;;;;4989981;28;20062;-58
2023/03/22 14:06:32;;;;;;;13.88;5.53;;;;;;;;;;4989084;28;20061;-60
2023/03/22 14:09:12;;;;;;;10.90;5.07;;;;;;;;;;4987667;28;20460;-60
2023/03/22 14:11:40;;;;;;;15.13;6.35;;;;;;;;;;4988446;28;20065;-59
2023/03/22 14:14:23;;;;;;;10.13;5.60;;;;;;;;;;4989949;28;20081;-60
2023/03/22 14:17:12;;;;;;;15.32;6.40;;;;;;;;;;4990561;28;20525;-59
2023/03/22 14:19:46;;;;;;;16.92;5.93;;;;;;;;;;4991047;28;20076;-59
2023/03/22 14:22:14;;;;;;;;;;;;;;;;;;4988615;28;20060;-60
2023/03/22 14:24:41;;;;;;;16.80;6.47;;;;;;;;;;4989274;28;19910;-60
2023/03/22 14:27:17;;;;;;;14.18;5.85;;;;;;;;;;4989235;28;20044;-60
2023/03/22 14:29:44;;;;;;;13.80;6.63;;;;;;;;;;4985262;28;20042;-60
2023/03/22 14:32:11;;;;;;;;;;;;;;;;;;4993678;28;20045;-59
2023/03/22 14:34:47;;;;;;;13.75;5.80;;;;;;;;;;4991636;28;19914;-59
2023/03/22 14:37:20;;;;;;;12.73;6.25;;;;;;;;;;4983544;28;20125;-60
2023/03/22 14:39:49;;;;;;;18.17;6.07;;;;;;;;;;4986386;28;20064;-60
2023/03/22 14:42:21;;;;;;;12.35;5.90;;;;;;;;;;4986216;28;20049;-62
2023/03/22 14:44:56;;;;;;;12.50;5.90;;;;;;;;;;4990789;28;20050;-61
2023/03/22 14:47:27;;;;;;;10.98;5.65;;;;;;;;;;4991666;28;20445;-61
2023/03/22 14:50:03;;;;;;;11.88;5.68;;;;;;;;;;4989452;28;20502;-61
2023/03/22 14:52:31;;;;;;;8.88;5.20;;;;;;;;;;4971300;28;20614;-61